Airfield :
LOGIN :

Register | Disclaimer

   EN    FR    IT 

 










Legend :    VFR   Marginal VFR   IFR   Intensive IFR   Very Intensive IFR
Visi :
Ceiling :
>= 8 km
>= 3000ft
5 to 8 km
1000 to 3000 ft
1500m to 5 km
500 to 1000 ft
800 to 1500m
200 to 500 ft
< 800m
< 200 ft
Symbols :   Thunderstorms  Fog  Heavy snow  Heavy precipitations  Wind > 20 kt
SIGMETs :     Misc.  Thunderstorms  Icing  Turbulence  Mountain Waves  Volcanic Ashes






- Airport Elevation : 1860 ft
- IATA code : GRX


LEGR - Granada

CURRENT METAR :
  • 282000Z 22008KT CAVOK 27/06 Q1013

EXPIRED METARs :
  • 281930Z 22008KT 180V250 CAVOK 28/06 Q1013
  • 281900Z 23010KT CAVOK 30/05 Q1013
  • 281830Z 23009KT CAVOK 31/06 Q1013
  • 281800Z 23012KT CAVOK 31/03 Q1013
  • 281730Z 22014KT 190V260 9999 FEW060 32/04 Q1013

TAF TAF LEGR
Valid from the 28 at 18:00 until the 29 at 18:00 UTC


281700Z 2818/2918 23010KT 9999 FEW040 TX33/2915Z TN14/2906Z
BECMG 2819/2821 VRB02KT
BECMG 2911/2913 28012KT



MET'MAP, your aeronautical weather chart ! - Copyright ORBIFLY December 2007 - Disclaimer

ORBIFLY MET'MAP TEAM :

Programming & Development : Alexandra Zaïnal
Original concept : Baudouin d'Aumeries
Technical & hardware support : Manuel Goepfert
Assistance : Marc-Olivier Méhu

Contact : metmap@orbifly.com




SOURCES & CREDITS :

   NOAA